Happy Valley, Texas
Current Conditions -  °F | °C
As of 2:58 AM on Friday 24 Oct 2014 (Local Time) from KDYS Reporting Station
Clear Clear  
Wind Chill: 66°   Ceiling: Unl
Heat Index: 66°   Visibility: 10mi
Dew Point: 60°   Wind: 9mph
Humidity: 81%   Direction: 200°SSW
Pressure: 30.1"   Gusts: NA
Location:  32.0181°N, 100.153°W
Report Text: KDYS 240758Z AUTO 20008KT 10SM CLR 19/15 A3010 RMK AO2 SLP156 T01870154
Loading
Personal Weather Stations






























Interactive Weather Map
Tropical Storm Tracking
New forecast layout! Learn more

10-Day Weather Forecast

Advertisements
Track Severe Weather on mobile